createdAt,value
2023-03-16T00:02:01.918Z,87.95
2023-03-16T00:04:32.644Z,87.45
2023-03-16T00:07:03.566Z,89.13
2023-03-16T00:09:33.853Z,84.82
2023-03-16T00:12:07.646Z,84.50
2023-03-16T00:14:37.735Z,82.82
2023-03-16T00:17:08.085Z,81.80
2023-03-16T00:19:40.205Z,84.65
2023-03-16T00:22:10.610Z,81.88
2023-03-16T00:24:41.130Z,91.45
2023-03-16T00:27:16.531Z,91.82
2023-03-16T00:29:48.624Z,87.30
2023-03-16T00:32:19.955Z,84.43
2023-03-16T00:34:51.284Z,84.22
2023-03-16T00:37:22.469Z,80.40
2023-03-16T00:39:54.003Z,81.32
2023-03-16T00:42:29.181Z,79.50
2023-03-16T00:45:03.295Z,78.00
2023-03-16T00:47:34.433Z,76.78
2023-03-16T00:50:05.451Z,75.88
2023-03-16T00:52:36.943Z,72.90
2023-03-16T00:55:07.375Z,70.40
2023-03-16T00:57:37.630Z,67.30
2023-03-16T01:00:17.244Z,69.40
2023-03-16T01:02:48.606Z,73.13
2023-03-16T01:05:18.803Z,67.97
2023-03-16T01:07:49.151Z,65.13
2023-03-16T01:10:19.662Z,62.90
2023-03-16T01:12:49.879Z,61.28
2023-03-16T01:15:20.502Z,61.67
2023-03-16T01:17:53.377Z,61.55
2023-03-16T01:20:23.836Z,61.58
2023-03-16T01:22:53.986Z,62.83
2023-03-16T01:25:25.653Z,57.50
2023-03-16T01:27:55.783Z,57.75
2023-03-16T01:30:26.220Z,59.33
2023-03-16T01:32:56.528Z,58.13
2023-03-16T01:35:27.000Z,54.92
2023-03-16T01:37:57.785Z,58.13
2023-03-16T01:40:29.960Z,73.55
2023-03-16T01:43:04.525Z,72.88
2023-03-16T01:45:59.467Z,59.00
2023-03-16T01:48:30.445Z,59.20
2023-03-16T01:51:01.042Z,53.35
2023-03-16T01:53:31.780Z,51.90
2023-03-16T01:56:03.034Z,53.55
2023-03-16T01:58:37.051Z,51.50
2023-03-16T02:01:08.160Z,49.45
2023-03-16T02:03:38.482Z,49.47
2023-03-16T02:06:21.066Z,49.53
2023-03-16T02:08:56.954Z,48.60
2023-03-16T02:11:27.622Z,47.40
2023-03-16T02:14:12.122Z,46.50
2023-03-16T02:16:44.388Z,46.65
2023-03-16T02:19:19.685Z,45.90
2023-03-16T02:21:56.107Z,44.90
2023-03-16T02:24:27.120Z,44.95
2023-03-16T02:27:08.976Z,41.72
2023-03-16T02:30:01.391Z,43.28
2023-03-16T02:32:37.555Z,42.83
2023-03-16T02:35:10.327Z,40.67
2023-03-16T02:37:41.168Z,41.80
2023-03-16T02:40:31.826Z,40.03
2023-03-16T02:43:15.110Z,41.83
2023-03-16T02:45:56.167Z,39.83
2023-03-16T02:48:33.867Z,39.28
2023-03-16T02:51:04.063Z,40.08
2023-03-16T02:53:34.810Z,38.90
2023-03-16T02:56:06.064Z,40.33
2023-03-16T02:58:38.506Z,38.08
2023-03-16T03:01:14.394Z,37.92
2023-03-16T03:03:45.332Z,37.42
2023-03-16T03:06:15.530Z,37.90
2023-03-16T03:08:46.100Z,35.95
2023-03-16T03:11:16.602Z,41.88
2023-03-16T03:13:47.103Z,37.38
2023-03-16T03:16:22.883Z,36.28
2023-03-16T03:18:57.030Z,37.70
2023-03-16T03:21:28.396Z,36.70
2023-03-16T03:23:58.527Z,36.05
2023-03-16T03:26:28.655Z,35.28
2023-03-16T03:29:01.978Z,36.25
2023-03-16T03:31:32.272Z,35.05
2023-03-16T03:34:08.028Z,33.42
2023-03-16T03:36:39.607Z,34.53
2023-03-16T03:39:10.691Z,35.42
2023-03-16T03:41:42.646Z,34.20
2023-03-16T03:44:14.511Z,33.75
2023-03-16T03:46:45.179Z,33.85
2023-03-16T03:49:17.332Z,34.38
2023-03-16T03:51:48.577Z,32.92
2023-03-16T03:54:21.645Z,32.25
2023-03-16T03:56:59.833Z,35.97
2023-03-16T03:59:31.471Z,32.05
2023-03-16T04:02:22.181Z,32.53
2023-03-16T04:04:56.421Z,37.92
2023-03-16T04:07:27.019Z,34.78
2023-03-16T04:10:02.583Z,34.97
2023-03-16T04:12:38.272Z,35.70
2023-03-16T04:15:10.970Z,33.80
2023-03-16T04:17:51.476Z,31.73
2023-03-16T04:20:22.438Z,32.00
2023-03-16T04:22:59.796Z,34.42
2023-03-16T04:25:34.316Z,33.65
2023-03-16T04:28:06.516Z,34.78
2023-03-16T04:30:39.383Z,34.42
2023-03-16T04:33:21.547Z,32.42
2023-03-16T04:35:53.757Z,33.10
2023-03-16T04:38:26.030Z,46.28
2023-03-16T04:41:03.605Z,45.08
2023-03-16T04:43:37.999Z,43.22
2023-03-16T04:46:28.899Z,42.55
2023-03-16T04:49:01.246Z,32.97
2023-03-16T04:51:33.667Z,47.42
2023-03-16T04:54:12.850Z,44.60
2023-03-16T04:56:46.680Z,33.63
2023-03-16T04:59:36.320Z,34.00
2023-03-16T05:02:21.668Z,33.03
2023-03-16T05:04:52.367Z,33.83
2023-03-16T05:07:23.373Z,32.13
2023-03-16T05:09:57.037Z,32.97
2023-03-16T05:12:27.817Z,33.95
2023-03-16T05:15:03.282Z,34.17
2023-03-16T05:17:44.910Z,35.97
2023-03-16T05:20:30.374Z,34.88
2023-03-16T05:23:03.832Z,34.22
2023-03-16T05:25:37.834Z,34.03
2023-03-16T05:28:10.516Z,34.17
2023-03-16T05:31:00.561Z,33.65
2023-03-16T05:33:30.691Z,36.78
2023-03-16T05:36:07.518Z,36.40
2023-03-16T05:38:40.736Z,35.20
2023-03-16T05:41:13.606Z,34.45
2023-03-16T05:43:58.698Z,34.75
2023-03-16T05:46:35.874Z,34.05
2023-03-16T05:49:08.390Z,34.35
2023-03-16T05:51:38.775Z,33.95
2023-03-16T05:54:10.321Z,35.88
2023-03-16T05:56:47.122Z,34.60
2023-03-16T05:59:19.767Z,35.90
2023-03-16T06:02:00.494Z,33.60
2023-03-16T06:04:30.766Z,34.00
2023-03-16T06:07:02.420Z,33.55
2023-03-16T06:09:34.416Z,35.13
2023-03-16T06:12:09.912Z,35.00
2023-03-16T06:14:42.976Z,35.30
2023-03-16T06:17:13.890Z,32.92
2023-03-16T06:19:45.651Z,34.05
2023-03-16T06:22:16.607Z,35.38
2023-03-16T06:24:47.403Z,35.00
2023-03-16T06:27:20.101Z,34.65
2023-03-16T06:30:08.541Z,37.33
2023-03-16T06:32:40.385Z,35.15
2023-03-16T06:35:11.642Z,34.83
2023-03-16T06:37:47.267Z,33.60
2023-03-16T06:40:30.410Z,34.25
2023-03-16T06:43:00.949Z,34.10
2023-03-16T06:45:32.129Z,34.95
2023-03-16T06:48:03.860Z,34.95
2023-03-16T06:50:34.192Z,34.80
2023-03-16T06:53:04.861Z,34.20
2023-03-16T06:55:38.408Z,34.17
2023-03-16T06:58:08.559Z,32.97
2023-03-16T07:00:38.734Z,33.05
2023-03-16T07:03:09.676Z,35.83
2023-03-16T07:05:42.194Z,35.13
2023-03-16T07:08:13.557Z,36.42
2023-03-16T07:10:44.033Z,34.65
2023-03-16T07:13:14.153Z,34.83
2023-03-16T07:15:46.214Z,34.92
2023-03-16T07:18:16.968Z,34.05
2023-03-16T07:20:49.283Z,35.53
2023-03-16T07:23:19.707Z,34.45
2023-03-16T07:25:50.293Z,34.03
2023-03-16T07:28:22.648Z,35.58
2023-03-16T07:31:03.396Z,34.45
2023-03-16T07:33:40.708Z,33.97
2023-03-16T07:36:15.147Z,34.58
2023-03-16T07:38:53.005Z,35.15
2023-03-16T07:41:23.863Z,33.50
2023-03-16T07:43:54.952Z,33.97
2023-03-16T07:46:29.392Z,34.58
2023-03-16T07:48:59.982Z,35.13
2023-03-16T07:51:30.676Z,36.65
2023-03-16T07:54:01.291Z,37.75
2023-03-16T07:56:47.925Z,35.85
2023-03-16T07:59:40.077Z,36.65
2023-03-16T08:02:16.933Z,36.38
2023-03-16T08:04:50.178Z,35.78
2023-03-16T08:07:21.209Z,35.78
2023-03-16T08:10:00.723Z,37.25
2023-03-16T08:12:38.876Z,37.80
2023-03-16T08:15:09.623Z,34.33
2023-03-16T08:17:43.281Z,36.67
2023-03-16T08:20:20.501Z,36.80
2023-03-16T08:22:51.226Z,34.20
2023-03-16T08:25:28.425Z,35.72
2023-03-16T08:28:10.421Z,35.20
2023-03-16T08:30:48.688Z,37.42
2023-03-16T08:33:34.694Z,37.70
2023-03-16T08:36:09.432Z,39.38
2023-03-16T08:38:41.604Z,36.88
2023-03-16T08:41:15.710Z,35.78
2023-03-16T08:43:48.628Z,38.08
2023-03-16T08:46:19.316Z,38.55
2023-03-16T08:48:57.357Z,38.22
2023-03-16T08:51:30.973Z,37.20
2023-03-16T08:54:01.779Z,37.95
2023-03-16T08:56:32.236Z,41.42
2023-03-16T08:59:02.679Z,38.72
2023-03-16T09:01:33.500Z,35.78
2023-03-16T09:04:04.966Z,36.15
2023-03-16T09:06:35.541Z,36.92
2023-03-16T09:09:06.296Z,35.10
2023-03-16T09:11:37.170Z,33.50
2023-03-16T09:14:08.606Z,33.63
2023-03-16T09:16:40.057Z,35.47
2023-03-16T09:19:10.557Z,34.38
2023-03-16T09:21:42.236Z,36.20
2023-03-16T09:24:12.668Z,34.95
2023-03-16T09:26:44.341Z,36.92
2023-03-16T09:29:14.557Z,34.78
2023-03-16T09:31:45.073Z,35.17
2023-03-16T09:34:15.268Z,34.60
2023-03-16T09:36:46.038Z,35.17
2023-03-16T09:39:16.990Z,33.58
2023-03-16T09:42:01.744Z,33.25
2023-03-16T09:45:05.553Z,34.22
2023-03-16T09:47:38.194Z,34.72
2023-03-16T09:50:16.398Z,32.53
2023-03-16T09:53:03.977Z,32.88
2023-03-16T09:55:40.705Z,37.00
2023-03-16T09:58:20.688Z,39.25
2023-03-16T10:01:21.672Z,38.80
2023-03-16T10:04:15.392Z,39.13
2023-03-16T10:07:21.248Z,37.53
2023-03-16T10:10:03.556Z,37.35
2023-03-16T10:12:39.828Z,40.75
2023-03-16T10:15:32.270Z,39.95
2023-03-16T10:18:08.842Z,38.60
2023-03-16T10:20:39.410Z,39.17
2023-03-16T10:23:29.939Z,37.30
2023-03-16T10:26:02.677Z,36.00
2023-03-16T10:28:33.809Z,37.28
2023-03-16T10:31:05.816Z,37.50
2023-03-16T10:33:38.160Z,35.63
2023-03-16T10:36:18.960Z,37.42
2023-03-16T10:38:57.079Z,37.47
2023-03-16T10:41:32.855Z,37.00
2023-03-16T10:44:14.884Z,38.17
2023-03-16T10:46:51.442Z,39.33
2023-03-16T10:49:31.146Z,37.60
2023-03-16T10:52:02.851Z,40.47
2023-03-16T10:54:43.015Z,39.35
2023-03-16T10:57:35.388Z,41.38
2023-03-16T11:00:31.420Z,41.10
2023-03-16T11:03:04.044Z,42.28
2023-03-16T11:05:36.293Z,40.13
2023-03-16T11:08:26.429Z,41.28
2023-03-16T11:11:10.023Z,39.88
2023-03-16T11:13:46.567Z,47.10
2023-03-16T11:16:55.842Z,42.83
2023-03-16T11:20:16.055Z,47.47
2023-03-16T11:22:48.783Z,42.70
2023-03-16T11:25:48.512Z,45.58
2023-03-16T11:28:43.355Z,44.20
2023-03-16T11:31:26.007Z,42.08
2023-03-16T11:33:59.116Z,44.17
2023-03-16T11:37:08.720Z,42.75
2023-03-16T11:40:18.005Z,41.28
2023-03-16T11:43:17.531Z,43.50
2023-03-16T11:46:14.197Z,46.60
2023-03-16T11:49:24.225Z,46.05
2023-03-16T11:52:25.016Z,48.65
2023-03-16T11:55:21.648Z,48.00
2023-03-16T11:58:30.926Z,72.65
2023-03-16T12:01:26.178Z,132.73
2023-03-16T12:04:24.364Z,56.58
2023-03-16T12:07:23.378Z,50.17
2023-03-16T12:10:14.044Z,46.92
2023-03-16T12:13:21.604Z,49.00
2023-03-16T12:15:58.459Z,47.10
2023-03-16T12:18:51.204Z,50.00
2023-03-16T12:21:40.237Z,51.85
2023-03-16T12:24:26.716Z,50.47
2023-03-16T12:26:59.128Z,52.92
2023-03-16T12:29:57.305Z,53.05
2023-03-16T12:33:02.229Z,53.72
2023-03-16T12:35:48.997Z,52.97
2023-03-16T12:38:55.040Z,49.95
2023-03-16T12:41:54.010Z,49.83
2023-03-16T12:45:03.881Z,50.30
2023-03-16T12:48:14.157Z,52.50
2023-03-16T12:50:53.644Z,51.63
2023-03-16T12:53:57.632Z,52.40
2023-03-16T12:56:48.758Z,53.70
2023-03-16T12:59:47.194Z,53.70
2023-03-16T13:02:21.680Z,53.72
2023-03-16T13:05:10.039Z,54.42
2023-03-16T13:07:49.132Z,57.13
2023-03-16T13:10:24.913Z,57.92
2023-03-16T13:12:57.697Z,55.92
2023-03-16T13:15:33.085Z,57.38
2023-03-16T13:18:24.437Z,67.72
2023-03-16T13:21:03.934Z,59.38
2023-03-16T13:23:59.985Z,58.05
2023-03-16T13:26:51.893Z,60.75
2023-03-16T13:29:32.818Z,64.57
2023-03-16T13:32:10.012Z,63.45
2023-03-16T13:34:55.474Z,64.70
2023-03-16T13:37:31.474Z,66.03
2023-03-16T13:40:06.040Z,64.53
2023-03-16T13:42:36.582Z,66.75
2023-03-16T13:45:18.408Z,67.05
2023-03-16T13:47:52.265Z,63.30
2023-03-16T13:50:24.342Z,67.57
2023-03-16T13:53:04.423Z,74.97
2023-03-16T13:55:39.710Z,70.25
2023-03-16T13:58:35.832Z,68.95
2023-03-16T14:01:15.912Z,66.60
2023-03-16T14:03:49.365Z,65.15
2023-03-16T14:06:30.228Z,67.50
2023-03-16T14:09:05.543Z,68.57
2023-03-16T14:11:36.496Z,66.13
2023-03-16T14:14:28.814Z,65.05
2023-03-16T14:17:24.140Z,66.00
2023-03-16T14:20:19.716Z,66.35
2023-03-16T14:22:53.151Z,67.32
2023-03-16T14:25:27.029Z,69.10
2023-03-16T14:28:08.965Z,64.80
2023-03-16T14:30:39.157Z,65.85
2023-03-16T14:33:31.465Z,66.55
2023-03-16T14:36:13.226Z,69.22
2023-03-16T14:38:45.334Z,62.95
2023-03-16T14:41:28.648Z,68.80
2023-03-16T14:44:03.762Z,66.20
2023-03-16T14:46:42.032Z,67.45
2023-03-16T14:49:42.772Z,74.57
2023-03-16T14:52:36.228Z,100.70
2023-03-16T14:55:21.709Z,76.53
2023-03-16T14:57:54.039Z,76.25
2023-03-16T15:00:24.804Z,76.10
2023-03-16T15:03:07.828Z,75.80
2023-03-16T15:05:40.928Z,75.15
2023-03-16T15:08:21.622Z,77.18
2023-03-16T15:10:52.611Z,76.32
2023-03-16T15:13:45.466Z,77.40
2023-03-16T15:16:17.283Z,79.28
2023-03-16T15:18:49.614Z,74.72
2023-03-16T15:21:26.727Z,76.20
2023-03-16T15:24:00.234Z,79.25
2023-03-16T15:26:32.176Z,77.95
2023-03-16T15:29:05.933Z,78.07
2023-03-16T15:31:36.364Z,82.10
2023-03-16T15:34:07.137Z,78.88
2023-03-16T15:36:37.726Z,73.72
2023-03-16T15:39:09.951Z,77.55
2023-03-16T15:41:47.478Z,79.20
2023-03-16T15:44:22.301Z,80.53
2023-03-16T15:46:52.812Z,78.22
2023-03-16T15:49:23.609Z,78.50
2023-03-16T15:51:53.724Z,81.60
2023-03-16T15:54:24.821Z,77.95
2023-03-16T15:56:57.423Z,78.53
2023-03-16T15:59:28.700Z,74.95
2023-03-16T16:01:59.860Z,75.13
2023-03-16T16:04:30.315Z,82.63
2023-03-16T16:07:01.685Z,81.65
2023-03-16T16:09:34.109Z,82.38
2023-03-16T16:12:05.235Z,79.20
2023-03-16T16:14:36.483Z,74.97
2023-03-16T16:17:17.243Z,74.93
2023-03-16T16:19:47.734Z,76.75
2023-03-16T16:22:18.235Z,75.88
2023-03-16T16:24:50.302Z,77.65
2023-03-16T16:27:21.017Z,77.82
2023-03-16T16:29:51.517Z,79.53
2023-03-16T16:32:26.187Z,76.85
2023-03-16T16:35:04.152Z,75.60
2023-03-16T16:37:37.181Z,76.00
2023-03-16T16:40:09.269Z,70.10
2023-03-16T16:42:43.025Z,76.68
2023-03-16T16:45:23.438Z,70.43
2023-03-16T16:48:00.514Z,73.68
2023-03-16T16:50:32.616Z,80.65
2023-03-16T16:53:05.463Z,130.32
2023-03-16T16:55:36.112Z,94.50
2023-03-16T16:58:18.537Z,78.65
2023-03-16T17:00:58.292Z,75.15
2023-03-16T17:03:30.615Z,79.18
2023-03-16T17:06:04.323Z,78.00
2023-03-16T17:08:34.718Z,78.10
2023-03-16T17:11:05.485Z,80.47
2023-03-16T17:13:41.544Z,80.07
2023-03-16T17:16:20.478Z,79.97
2023-03-16T17:18:51.609Z,80.82
2023-03-16T17:21:26.691Z,80.15
2023-03-16T17:23:56.788Z,77.72
2023-03-16T17:26:44.164Z,81.07
2023-03-16T17:29:27.142Z,78.95
2023-03-16T17:31:57.758Z,76.57
2023-03-16T17:34:30.472Z,75.15
2023-03-16T17:37:01.086Z,75.72
2023-03-16T17:39:35.762Z,73.60
2023-03-16T17:42:15.175Z,70.93
2023-03-16T17:44:47.985Z,73.82
2023-03-16T17:47:25.295Z,70.00
2023-03-16T17:49:56.612Z,68.60
2023-03-16T17:52:30.425Z,65.35
2023-03-16T17:55:00.892Z,70.45
2023-03-16T17:57:34.716Z,69.53
2023-03-16T18:00:10.649Z,72.43
2023-03-16T18:03:12.773Z,71.00
2023-03-16T18:05:43.416Z,70.32
2023-03-16T18:08:28.107Z,71.30
2023-03-16T18:11:12.238Z,73.55
2023-03-16T18:13:43.987Z,75.05
2023-03-16T18:16:24.540Z,72.40
2023-03-16T18:19:13.761Z,73.32
2023-03-16T18:21:44.346Z,75.20
2023-03-16T18:24:17.656Z,74.68
2023-03-16T18:26:48.242Z,74.90
2023-03-16T18:29:19.773Z,78.30
2023-03-16T18:31:50.168Z,77.68
2023-03-16T18:34:25.369Z,77.90
2023-03-16T18:36:57.440Z,75.10
2023-03-16T18:39:28.843Z,76.00
2023-03-16T18:41:59.007Z,75.68
2023-03-16T18:44:29.719Z,76.68
2023-03-16T18:47:04.640Z,76.47
2023-03-16T18:49:37.658Z,77.20
2023-03-16T18:52:18.711Z,75.00
2023-03-16T18:54:49.770Z,71.85
2023-03-16T18:57:22.900Z,72.82
2023-03-16T18:59:53.761Z,74.53
2023-03-16T19:02:41.300Z,74.38
2023-03-16T19:05:18.235Z,76.47
2023-03-16T19:07:51.718Z,72.75
2023-03-16T19:10:43.563Z,75.70
2023-03-16T19:13:23.190Z,75.47
2023-03-16T19:15:54.974Z,76.38
2023-03-16T19:18:27.665Z,75.97
2023-03-16T19:20:58.723Z,76.72
2023-03-16T19:23:38.112Z,76.28
2023-03-16T19:26:08.273Z,73.95
2023-03-16T19:28:40.998Z,74.13
2023-03-16T19:31:31.861Z,75.35
2023-03-16T19:34:01.768Z,77.43
2023-03-16T19:36:35.011Z,75.15
2023-03-16T19:39:05.852Z,73.78
2023-03-16T19:41:39.573Z,74.10
2023-03-16T19:44:22.312Z,74.93
2023-03-16T19:46:53.377Z,71.25
2023-03-16T19:49:26.375Z,73.45
2023-03-16T19:51:57.710Z,75.93
2023-03-16T19:54:36.692Z,72.50
2023-03-16T19:57:13.964Z,74.35
2023-03-16T19:59:47.338Z,74.38
2023-03-16T20:02:39.875Z,73.57
2023-03-16T20:05:16.795Z,72.93
2023-03-16T20:07:47.203Z,72.70
2023-03-16T20:10:35.438Z,73.35
2023-03-16T20:13:05.695Z,74.93
2023-03-16T20:15:37.537Z,74.97
2023-03-16T20:18:14.806Z,76.68
2023-03-16T20:20:46.228Z,73.68
2023-03-16T20:23:36.869Z,74.55
2023-03-16T20:26:13.309Z,76.68
2023-03-16T20:28:43.779Z,76.70
2023-03-16T20:31:24.622Z,74.10
2023-03-16T20:33:55.527Z,77.78
2023-03-16T20:36:28.000Z,74.07
2023-03-16T20:38:57.915Z,76.32
2023-03-16T20:41:34.199Z,75.80
2023-03-16T20:44:04.818Z,76.30
2023-03-16T20:46:35.891Z,75.05
2023-03-16T20:49:28.517Z,76.03
2023-03-16T20:51:58.999Z,75.38
2023-03-16T20:54:29.483Z,75.93
2023-03-16T20:56:59.481Z,77.10
2023-03-16T20:59:31.973Z,76.20
2023-03-16T21:02:03.264Z,76.45
2023-03-16T21:04:33.974Z,76.60
2023-03-16T21:07:04.033Z,77.03
2023-03-16T21:09:34.898Z,75.72
2023-03-16T21:12:05.298Z,79.45
2023-03-16T21:14:35.592Z,75.18
2023-03-16T21:17:06.029Z,80.38
2023-03-16T21:19:36.618Z,79.10
2023-03-16T21:22:36.411Z,79.05
2023-03-16T21:25:06.858Z,76.68
2023-03-16T21:27:38.897Z,77.43
2023-03-16T21:30:31.345Z,76.53
2023-03-16T21:33:03.798Z,79.95
2023-03-16T21:35:39.563Z,73.88
2023-03-16T21:38:19.993Z,71.70
2023-03-16T21:40:50.787Z,72.60
2023-03-16T21:43:21.439Z,75.18
2023-03-16T21:45:53.541Z,75.72
2023-03-16T21:48:27.511Z,75.05
2023-03-16T21:50:57.730Z,75.55
2023-03-16T21:53:36.370Z,74.90
2023-03-16T21:56:07.083Z,76.10
2023-03-16T21:58:37.345Z,74.55
2023-03-16T22:01:08.008Z,75.20
2023-03-16T22:03:50.975Z,75.93
2023-03-16T22:06:23.312Z,76.60
2023-03-16T22:08:53.944Z,75.03
2023-03-16T22:11:27.724Z,72.90
2023-03-16T22:14:00.443Z,69.38
2023-03-16T22:16:34.980Z,72.85
2023-03-16T22:19:05.884Z,71.28
2023-03-16T22:21:39.829Z,72.70
2023-03-16T22:24:23.701Z,72.50
2023-03-16T22:26:55.259Z,71.78
2023-03-16T22:29:29.701Z,73.40
2023-03-16T22:32:09.018Z,70.18
2023-03-16T22:34:53.823Z,71.82
2023-03-16T22:37:28.049Z,73.38
2023-03-16T22:40:00.021Z,77.03
2023-03-16T22:42:41.472Z,73.13
2023-03-16T22:45:23.377Z,74.40
2023-03-16T22:47:54.532Z,75.35
2023-03-16T22:50:28.972Z,72.32
2023-03-16T22:53:02.596Z,74.40
2023-03-16T22:55:37.377Z,74.85
2023-03-16T22:58:46.612Z,75.57
2023-03-16T23:01:26.130Z,75.72
2023-03-16T23:03:56.243Z,77.65
2023-03-16T23:06:29.307Z,76.65
2023-03-16T23:08:59.809Z,77.82
2023-03-16T23:24:13.190Z,86.50
2023-03-16T23:26:43.798Z,85.80
2023-03-16T23:29:15.410Z,83.72
2023-03-16T23:31:45.728Z,84.57
2023-03-16T23:34:18.531Z,80.47
2023-03-16T23:36:48.806Z,79.13
2023-03-16T23:39:20.042Z,83.13
2023-03-16T23:41:52.391Z,80.47
2023-03-16T23:44:27.952Z,80.15
2023-03-16T23:47:00.582Z,80.78
2023-03-16T23:49:34.116Z,82.57
2023-03-16T23:52:04.385Z,82.43
2023-03-16T23:54:35.535Z,81.45
2023-03-16T23:57:06.037Z,84.50
2023-03-16T23:59:36.392Z,82.30
